Latest Weather Observations for Tennant Creek

IDD60801

Issued at 7:01 am CST Sunday 4 December 2016 (issued every 30 minutes, with the page automatically refreshed every 10 minutes)

About weather observations | Map of weather stations | Latest weather observations for NT | Other Formats
Station Details ID: 015135 Name: TENNANT CREEK AIRPORT Lat: -19.64 Lon: 134.18 Height: 375.7 m
Data from the previous 72 hours. | See also: Recent months at Tennant Creek
Date/Time
CST
Temp
°C
App
Temp
°C
Dew
Point
°C
Rel
Hum
%
Delta-T
°C
Wind Press
QNH
hPa
Press
MSL
hPa
Rain since
9am
mm
Dir  Spd
km/h
Gust
km/h
Spd
kts
Gust
kts
04/07:00am 25.8 27.7 22.1 80 2.5 S 15 22 8 12 1013.8 - 1.6
04/06:30am 25.6 30.8 22.8 84 1.9 CALM 0 0 0 0 1013.5 - 1.6
04/06:00am 25.4 30.8 23.2 88 1.5 CALM 0 0 0 0 1012.8 1009.7 1.6
04/05:30am 25.4 29.3 22.5 84 2.0 SW 6 7 3 4 1012.2 - 1.6
04/05:00am 25.6 28.3 21.3 77 2.9 S 9 11 5 6 1011.7 - 1.6
04/04:30am 25.2 28.8 22.3 84 2.0 S 7 9 4 5 1011.7 - 1.6
04/04:00am 24.7 27.6 22.5 87 1.5 SW 11 13 6 7 1011.8 - 1.6
04/03:32am 24.3 27.6 22.5 90 1.2 WSW 9 15 5 8 1012.2 - 1.6
04/03:30am 24.3 27.5 22.4 89 1.3 SW 9 15 5 8 1012.2 - 1.6
04/03:13am 24.3 26.7 21.5 84 1.9 N 11 17 6 9 1012.6 - 1.2
04/03:00am 26.2 28.1 20.5 71 3.8 NNW 11 15 6 8 1012.7 1009.6 0.6
04/02:30am 26.7 26.5 19.7 65 4.6 N 20 26 11 14 1012.8 - 0.6
04/02:00am 26.9 29.8 20.6 68 4.2 SW 6 7 3 4 1012.5 - 0.6
04/01:58am 26.9 30.0 20.3 67 4.4 SW 4 7 2 4 1012.5 - 0.6
04/01:40am 26.9 29.4 20.3 67 4.4 SSW 7 9 4 5 1012.8 - 0.6
04/01:30am 27.0 29.0 19.9 65 4.7 SW 9 13 5 7 1012.8 - 0.6
04/01:00am 27.0 29.3 19.9 65 4.7 S 7 11 4 6 1013.0 - 0.6
04/12:30am 26.8 28.7 19.8 65 4.6 S 9 13 5 7 1013.2 - 0.6
04/12:00am 26.9 28.7 19.6 64 4.8 SSW 9 17 5 9 1013.4 1010.4 0.6
 
Date/Time
CST
Temp
°C
App
Temp
°C
Dew
Point
°C
Rel
Hum
%
Delta-T
°C
Wind Press
QNH
hPa
Press
MSL
hPa
Rain since
9am
mm
Dir  Spd
km/h
Gust
km/h
Spd
kts
Gust
kts
03/11:30pm 27.1 27.7 19.5 63 5.0 S 15 20 8 11 1013.6 - 0.6
03/11:00pm 27.3 27.8 19.2 61 5.3 WSW 15 26 8 14 1014.0 - 0.6
03/10:30pm 26.6 26.8 19.4 64 4.7 W 17 24 9 13 1013.4 - 0.6
03/10:00pm 30.2 30.8 17.7 47 8.1 WNW 11 17 6 9 1013.3 - 0.0
03/09:30pm 30.9 31.7 17.2 43 8.8 SSW 9 13 5 7 1011.9 - 0.0
03/09:00pm 29.8 31.2 18.7 51 7.3 WNW 9 11 5 6 1011.0 1008.0 0.0
03/08:30pm 31.1 29.2 16.7 42 9.2 W 22 30 12 16 1010.8 - 0.0
03/08:00pm 30.4 27.2 16.2 42 9.0 W 28 50 15 27 1010.3 - 0.0
03/07:53pm 31.1 30.5 18.4 46 8.3 W 19 50 10 27 1010.0 - 0.0
03/07:36pm 36.2 29.6 7.6 17 16.3 NW 32 52 17 28 1009.6 - 0.0
03/07:33pm 36.1 28.0 7.1 17 16.4 NW 39 52 21 28 1009.6 - 0.0
03/07:30pm 36.2 29.3 7.3 17 16.4 N 33 44 18 24 1009.5 - 0.0
03/07:00pm 35.7 33.9 9.3 20 15.4 N 9 11 5 6 1009.0 - 0.0
03/06:30pm 37.0 34.4 7.7 16 16.8 N 11 17 6 9 1008.6 - 0.0
03/06:00pm 37.4 34.0 7.6 16 17.1 N 15 26 8 14 1008.4 1005.4 0.0
03/05:30pm 38.1 35.3 8.4 16 17.3 NNW 13 28 7 15 1008.1 - 0.0
03/05:00pm 38.2 35.2 9.2 17 17.1 N 15 32 8 17 1007.9 - 0.0
03/04:30pm 37.7 35.1 9.4 18 16.7 N 13 20 7 11 1007.9 - 0.0
03/04:00pm 38.0 33.3 9.1 17 17.0 N 24 28 13 15 1007.9 - 0.0
03/03:37pm 38.2 32.9 9.7 18 16.9 N 28 35 15 19 1008.3 - 0.0
03/03:30pm 37.4 35.0 9.9 19 16.3 NE 13 17 7 9 1008.3 - 0.0
03/03:00pm 37.6 34.5 10.3 19 16.3 N 17 28 9 15 1008.7 1005.7 0.0
03/02:30pm 37.8 34.4 10.4 19 16.4 NNW 19 33 10 18 1009.1 - 0.0
03/02:00pm 37.7 34.9 11.5 20 15.9 N 17 33 9 18 1009.7 - 0.0
03/01:30pm 37.3 35.3 12.6 22 15.2 NW 15 28 8 15 1010.5 - 0.0
03/01:00pm 36.3 34.3 12.7 24 14.5 N 15 24 8 13 1011.1 - 0.0
03/12:30pm 36.7 35.1 12.9 24 14.7 N 13 26 7 14 1011.7 - 0.0
03/12:00pm 34.8 33.6 14.1 28 12.9 NNW 13 22 7 12 1012.4 1009.3 0.0
03/11:30am 33.6 32.5 15.4 33 11.5 NNW 15 26 8 14 1013.1 - 0.0
03/11:00am 33.1 31.7 15.6 35 11.1 N 17 28 9 15 1013.5 - 0.0
03/10:30am 32.7 31.4 15.8 36 10.7 N 17 24 9 13 1013.6 - 0.0
03/10:00am 31.6 31.7 16.4 40 9.7 N 11 17 6 9 1013.9 - 0.0
03/09:30am 30.9 29.7 16.2 41 9.3 NNW 17 24 9 13 1014.1 - 0.0
03/09:00am 30.6 29.8 17.0 44 8.7 N 17 26 9 14 1013.9 1010.9 0.0
03/08:30am 29.9 28.6 16.7 45 8.4 N 19 26 10 14 1013.7 - 0.0
03/08:00am 30.0 28.2 16.0 42 8.8 N 20 28 11 15 1013.4 - 0.0
03/07:30am 29.9 28.2 16.3 43 8.6 N 20 28 11 15 1013.0 - 0.0
03/07:00am 28.7 27.9 17.1 49 7.4 N 17 26 9 14 1012.9 - 0.0
03/06:30am 27.1 26.6 17.9 57 5.9 NNE 17 24 9 13 1012.6 - 0.0
03/06:00am 26.8 26.3 17.7 57 5.8 N 17 24 9 13 1012.2 1009.1 0.0
03/05:30am 26.9 26.3 17.5 56 6.0 N 17 24 9 13 1011.5 - 0.0
03/05:00am 27.1 26.5 17.6 56 6.1 NNE 17 24 9 13 1011.0 - 0.0
03/04:30am 27.2 27.8 17.7 56 6.1 NE 11 15 6 8 1010.9 - 0.0
03/04:00am 27.1 28.1 16.8 53 6.5 NE 7 11 4 6 1011.0 - 0.0
03/03:30am 27.1 27.7 15.9 50 7.0 NE 7 11 4 6 1011.0 - 0.0
03/03:00am 27.0 27.1 15.5 49 7.1 E 9 11 5 6 1011.1 1008.1 0.0
03/02:30am 27.3 27.7 15.3 48 7.4 ENE 7 11 4 6 1010.9 - 0.0
03/02:00am 27.7 27.7 15.3 46 7.7 NE 9 11 5 6 1010.9 - 0.0
03/01:30am 28.3 28.2 15.0 44 8.2 NNE 9 13 5 7 1010.9 - 0.0
03/01:00am 28.6 27.9 15.4 44 8.2 NNE 13 17 7 9 1011.3 - 0.0
03/12:30am 28.9 27.2 15.8 45 8.2 NNE 19 26 10 14 1011.7 - 0.0
03/12:00am 29.5 27.5 15.4 42 8.8 N 20 26 11 14 1011.8 1008.8 0.0
 
Date/Time
CST
Temp
°C
App
Temp
°C
Dew
Point
°C
Rel
Hum
%
Delta-T
°C
Wind Press
QNH
hPa
Press
MSL
hPa
Rain since
9am
mm
Dir  Spd
km/h
Gust
km/h
Spd
kts
Gust
kts
02/11:30pm 30.2 26.5 14.9 39 9.5 N 28 41 15 22 1011.9 - 0.0
02/11:00pm 31.6 27.1 12.7 31 11.4 N 28 39 15 21 1011.8 - 0.0
02/10:47pm 31.9 27.1 11.8 29 12.0 N 28 39 15 21 1011.7 - 0.0
02/10:30pm 31.8 30.1 12.6 31 11.6 NNE 13 17 7 9 1011.4 - 0.0
02/10:00pm 30.3 30.1 13.1 34 10.4 ESE 6 7 3 4 1010.7 - 0.0
02/09:30pm 30.9 30.7 13.1 33 10.8 E 6 7 3 4 1010.3 - 0.0
02/09:00pm 30.7 31.2 14.1 36 10.2 N 4 9 2 5 1009.8 1006.7 0.0
02/08:30pm 30.9 31.1 12.9 33 10.9 N 4 7 2 4 1009.5 - 0.0
02/08:00pm 32.3 31.5 12.9 30 11.8 W 9 11 5 6 1008.9 - 0.0
02/07:30pm 32.9 31.9 12.2 28 12.5 W 9 13 5 7 1008.6 - 0.0
02/07:00pm 33.8 32.4 12.1 26 13.1 W 11 17 6 9 1008.4 - 0.0
02/06:30pm 34.6 33.1 10.7 23 14.2 NW 9 15 5 8 1008.2 - 0.0
02/06:00pm 35.2 31.0 9.8 21 14.9 W 22 33 12 18 1007.9 1004.8 0.0
02/05:30pm 37.2 32.9 9.3 18 16.4 WNW 22 30 12 16 1007.6 - 0.0
02/05:00pm 38.2 35.7 6.7 14 17.9 N 9 17 5 9 1007.5 - 0.0
02/04:30pm 38.4 35.4 7.8 15 17.6 N 13 24 7 13 1007.5 - 0.0
02/04:00pm 37.8 36.2 8.7 17 17.0 NNW 7 17 4 9 1007.7 - 0.0
02/03:30pm 38.3 33.2 7.5 15 17.7 N 24 32 13 17 1008.1 - 0.0
02/03:00pm 38.1 34.8 8.1 16 17.4 WNW 15 22 8 12 1008.5 1005.5 0.0
02/02:30pm 38.1 35.2 8.0 16 17.4 NE 13 20 7 11 1008.9 - 0.0
02/02:00pm 37.8 35.0 8.7 17 17.0 NW 13 24 7 13 1009.2 - 0.0
02/01:30pm 38.6 37.1 9.3 17 17.3 WNW 7 13 4 7 1009.8 - 0.0
02/01:00pm 37.7 33.6 8.5 17 17.0 WNW 20 28 11 15 1010.2 - 0.0
02/12:30pm 37.4 33.8 9.9 19 16.3 WNW 19 32 10 17 1010.7 - 0.0
02/12:00pm 36.6 33.7 9.5 19 15.9 NW 15 26 8 14 1011.2 1008.2 0.0
02/11:30am 36.5 33.7 9.9 20 15.7 WNW 15 28 8 15 1011.6 - 0.0
02/11:00am 35.7 33.8 11.7 23 14.5 NNW 13 24 7 13 1012.0 - 0.0
02/10:30am 34.9 32.8 12.4 25 13.7 NW 15 24 8 13 1012.4 - 0.0
02/10:00am 34.3 32.8 13.1 27 13.0 WNW 13 22 7 12 1012.6 - 0.0
02/09:30am 33.6 31.1 13.4 29 12.4 NW 19 30 10 16 1012.7 - 0.0
02/09:00am 32.8 30.2 13.8 31 11.7 NW 20 28 11 15 1012.8 1009.7 0.0
02/08:30am 32.4 29.8 13.7 32 11.5 NW 20 32 11 17 1012.5 - 0.0
02/08:00am 31.1 28.2 12.9 32 11.0 NW 20 30 11 16 1012.3 - 0.0
02/07:30am 30.0 27.6 13.8 37 9.9 NW 19 28 10 15 1012.0 - 0.0
02/07:00am 28.6 26.3 14.0 40 8.9 NW 19 28 10 15 1011.5 - 0.0
02/06:30am 27.3 26.1 14.1 44 8.0 NW 13 17 7 9 1011.0 - 0.0
02/06:00am 26.0 25.7 14.3 48 7.1 NW 9 13 5 7 1010.6 1007.6 0.0
02/05:30am 25.8 25.4 14.0 48 7.1 NW 9 11 5 6 1010.4 - 0.0
02/05:00am 26.0 25.5 13.9 47 7.3 NNW 9 15 5 8 1010.2 - 0.0
02/04:30am 25.9 25.5 14.2 48 7.1 NNW 9 11 5 6 1009.8 - 0.0
02/04:00am 26.5 26.7 14.3 47 7.4 NW 6 7 3 4 1009.5 - 0.0
02/03:30am 26.9 26.8 13.8 44 7.9 WNW 7 9 4 5 1009.1 - 0.0
02/03:00am 27.4 26.2 12.8 40 8.7 NW 11 17 6 9 1009.0 1006.0 0.0
02/02:30am 27.6 26.5 11.9 37 9.2 WNW 9 13 5 7 1008.9 - 0.0
02/02:00am 28.2 26.7 10.7 33 10.1 WNW 9 13 5 7 1008.6 - 0.0
02/01:30am 29.2 26.3 9.8 30 11.1 WNW 15 26 8 14 1008.4 - 0.0
02/01:00am 28.4 27.1 7.7 27 11.4 WNW 4 7 2 4 1008.2 - 0.0
02/12:30am 29.8 26.8 6.1 22 12.8 W 11 13 6 7 1008.3 - 0.0
02/12:00am 29.8 26.5 4.5 20 13.3 NW 11 15 6 8 1008.5 1005.5 0.0
 
Date/Time
CST
Temp
°C
App
Temp
°C
Dew
Point
°C
Rel
Hum
%
Delta-T
°C
Wind Press
QNH
hPa
Press
MSL
hPa
Rain since
9am
mm
Dir  Spd
km/h
Gust
km/h
Spd
kts
Gust
kts
01/11:30pm 31.8 28.2 4.9 18 14.4 NNE 13 15 7 8 1008.4 - 0.0
01/11:00pm 32.0 28.3 4.3 17 14.7 NNE 13 15 7 8 1008.6 - 0.0
01/10:30pm 32.1 28.1 3.0 16 15.1 NNE 13 15 7 8 1008.6 - 0.0
01/10:00pm 33.2 29.5 2.6 14 15.9 NNE 11 15 6 8 1008.4 - 0.0
01/09:30pm 34.2 30.0 1.8 13 16.7 NNE 13 17 7 9 1007.9 - 0.0
01/09:00pm 34.4 30.4 3.1 14 16.5 NE 13 15 7 8 1007.5 1004.4 0.0
01/08:30pm 34.0 30.6 4.1 15 15.9 NE 11 11 6 6 1007.3 - 0.0
01/08:00pm 36.0 32.7 2.7 12 17.6 NE 9 13 5 7 1007.1 - 0.0
01/07:30pm 36.2 33.0 2.8 12 17.7 ENE 9 13 5 7 1006.4 - 0.0
01/07:00pm 36.8 33.3 1.5 11 18.3 E 9 13 5 7 1006.0 - 0.0
01/06:30pm 37.3 33.9 1.6 10 18.6 E 9 13 5 7 1005.7 - 0.0
01/06:00pm 38.2 33.9 -1.4 8 19.9 E 11 17 6 9 1005.6 1002.5 0.0
01/05:30pm 38.7 34.3 0.2 9 19.8 NNE 13 20 7 11 1005.5 - 0.0
01/05:00pm 39.6 34.6 -1.5 7 20.7 E 15 22 8 12 1005.4 - 0.0
01/04:30pm 39.3 35.6 0.1 8 20.2 E 9 20 5 11 1005.4 - 0.0
01/04:00pm 39.5 35.3 1.6 9 20.0 NE 13 22 7 12 1005.6 - 0.0
01/03:30pm 39.1 34.8 1.3 9 19.8 ESE 13 24 7 13 1006.0 - 0.0
01/03:00pm 39.5 35.3 1.5 9 20.1 E 13 28 7 15 1006.4 1003.4 0.0
01/02:30pm 39.4 32.9 -2.8 7 20.8 E 22 32 12 17 1007.1 - 0.0
01/02:00pm 38.3 33.8 2.1 10 19.2 NNE 15 30 8 16 1007.5 - 0.0
01/01:30pm 40.3 33.4 0.2 8 20.8 NE 26 39 14 21 1007.8 - 0.0
01/01:00pm 39.3 34.3 3.5 11 19.4 NE 19 30 10 16 1008.3 - 0.0
01/12:30pm 39.3 35.4 3.4 11 19.5 NE 13 28 7 15 1008.7 - 0.0
01/12:00pm 38.9 34.7 1.5 10 19.7 NE 13 24 7 13 1009.1 1006.1 0.0
01/11:30am 38.6 34.5 6.2 14 18.3 N 17 22 9 12 1009.7 - 0.0
01/11:00am 36.9 33.0 9.3 18 16.2 N 20 33 11 18 1010.1 - 0.0
01/10:30am 36.8 33.7 11.5 21 15.3 N 19 32 10 17 1010.5 - 0.0
01/10:00am 36.1 33.1 13.6 26 14.0 NNW 22 33 12 18 1010.6 - 0.0
01/09:30am 34.8 32.2 14.8 30 12.6 NW 22 30 12 16 1010.8 - 0.0
01/09:00am 32.9 31.6 15.9 36 10.8 NNW 17 26 9 14 1010.9 1007.9 0.0
01/08:30am 31.7 28.3 15.9 38 10.0 NNW 28 33 15 18 1010.8 - 0.0
01/08:00am 30.9 28.2 16.5 42 9.2 NNW 26 32 14 17 1010.5 - 0.0
01/07:30am 28.5 27.1 16.5 48 7.6 NNW 19 26 10 14 1010.4 - 0.0

Other Formats:

Comma delimited format used in spreadsheet applications
http://www.bom.gov.au/fwo/IDD60801/IDD60801.94238.axf

JavaScript Object Notation format (JSON) in row-major order
http://www.bom.gov.au/fwo/IDD60801/IDD60801.94238.json